createdAt,value
2023-05-19T00:00:02.247Z,11.69
2023-05-19T00:15:01.927Z,11.38
2023-05-19T00:30:01.661Z,11.13
2023-05-19T00:45:02.287Z,10.9
2023-05-19T01:00:01.926Z,10.66
2023-05-19T01:15:01.561Z,10.38
2023-05-19T01:30:02.236Z,10.16
2023-05-19T01:45:01.870Z,9.99
2023-05-19T02:00:02.555Z,9.72
2023-05-19T02:15:02.233Z,9.55
2023-05-19T02:30:01.948Z,9.35
2023-05-19T02:45:01.582Z,9.12
2023-05-19T03:00:02.213Z,8.89
2023-05-19T03:15:01.823Z,8.81
2023-05-19T03:30:04.377Z,8.66
2023-05-19T03:45:02.016Z,8.46
2023-05-19T04:00:01.646Z,8.28
2023-05-19T04:15:02.306Z,8.19
2023-05-19T04:30:02.481Z,8.04
2023-05-19T04:45:02.074Z,8.05
2023-05-19T05:00:01.784Z,8.08
2023-05-19T05:15:02.417Z,8.09
2023-05-19T05:30:02.091Z,8.21
2023-05-19T05:45:01.695Z,8.42
2023-05-19T06:00:02.363Z,8.77
2023-05-19T06:15:02.073Z,9.31
2023-05-19T06:30:01.758Z,9.78
2023-05-19T06:45:02.389Z,10.34
2023-05-19T07:00:02.102Z,11.04
2023-05-19T07:15:01.726Z,11.74
2023-05-19T07:30:02.382Z,12.65
2023-05-19T07:45:01.947Z,13.39
2023-05-19T08:00:01.568Z,14.05
2023-05-19T08:15:02.223Z,14.79
2023-05-19T08:30:01.916Z,15.47
2023-05-19T08:45:02.567Z,16.11
2023-05-19T09:00:02.226Z,16.7
2023-05-19T09:15:01.967Z,17.34
2023-05-19T09:30:01.594Z,17.98
2023-05-19T09:45:02.281Z,18.45
2023-05-19T10:00:01.889Z,18.78
2023-05-19T10:15:02.541Z,19.24
2023-05-19T10:30:02.260Z,19.78
2023-05-19T10:45:01.919Z,20.16
2023-05-19T11:00:01.619Z,20.63
2023-05-19T11:15:02.248Z,21.17
2023-05-19T11:30:02.043Z,21.31
2023-05-19T11:45:01.925Z,21.67
2023-05-19T12:00:01.561Z,21.97
2023-05-19T12:15:02.134Z,22.07
2023-05-19T12:30:01.863Z,22.48
2023-05-19T12:45:03.431Z,22.68
2023-05-19T13:00:02.237Z,23.03
2023-05-19T13:15:01.913Z,23.35
2023-05-19T13:30:01.574Z,23.66
2023-05-19T13:45:02.273Z,23.94
2023-05-19T14:00:03.866Z,24.23
2023-05-19T14:15:01.827Z,24.13
2023-05-19T14:30:02.514Z,24.26
2023-05-19T14:45:02.158Z,24.21
2023-05-19T15:00:01.851Z,24.25
2023-05-19T15:15:02.549Z,24.5
2023-05-19T15:30:02.256Z,24.45
2023-05-19T15:45:01.872Z,24.07
2023-05-19T16:00:02.456Z,23.96
2023-05-19T16:15:02.079Z,24.09
2023-05-19T16:30:01.754Z,23.92
2023-05-19T16:45:02.432Z,24.11
2023-05-19T17:00:02.074Z,23.82
2023-05-19T17:15:01.681Z,23.82
2023-05-19T17:30:02.297Z,23.64
2023-05-19T17:45:01.881Z,23.6
2023-05-19T18:00:02.488Z,23.45
2023-05-19T18:15:02.169Z,23.3
2023-05-19T18:30:01.852Z,23.09
2023-05-19T18:45:02.463Z,22.87
2023-05-19T19:00:02.071Z,22.54
2023-05-19T19:15:01.714Z,22.13
2023-05-19T19:30:02.325Z,21.56
2023-05-19T19:45:01.910Z,20.98
2023-05-19T20:00:02.495Z,20.44
2023-05-19T20:15:02.099Z,20.02
2023-05-19T20:30:01.807Z,19.68
2023-05-19T20:45:02.398Z,19.35
2023-05-19T21:00:01.984Z,19
2023-05-19T21:15:01.658Z,18.73
2023-05-19T21:30:02.281Z,18.49
2023-05-19T21:45:01.906Z,18.32
2023-05-19T22:00:02.514Z,18.13
2023-05-19T22:15:02.130Z,18.07
2023-05-19T22:30:01.882Z,17.9
2023-05-19T22:45:02.513Z,17.8
2023-05-19T23:00:02.099Z,17.74
2023-05-19T23:15:01.743Z,17.5
2023-05-19T23:30:02.465Z,17.28
2023-05-19T23:45:02.107Z,17.23
